createdAt,value
2019-04-26T00:00:43.099Z,16.30
2019-04-26T00:03:16.298Z,16.30
2019-04-26T00:05:47.427Z,16.30
2019-04-26T00:08:18.398Z,16.40
2019-04-26T00:11:05.798Z,16.40
2019-04-26T00:14:14.216Z,16.40
2019-04-26T00:16:52.935Z,16.40
2019-04-26T00:19:24.123Z,16.40
2019-04-26T00:21:55.666Z,16.40
2019-04-26T00:24:28.499Z,16.30
2019-04-26T00:26:59.407Z,16.30
2019-04-26T00:29:30.448Z,16.30
2019-04-26T00:32:02.574Z,16.30
2019-04-26T00:34:33.768Z,16.30
2019-04-26T00:37:05.034Z,16.30
2019-04-26T00:39:36.147Z,16.30
2019-04-26T00:42:07.523Z,16.30
2019-04-26T00:44:40.334Z,16.30
2019-04-26T00:47:14.212Z,16.20
2019-04-26T00:49:46.575Z,16.20
2019-04-26T00:52:19.287Z,16.20
2019-04-26T00:54:51.531Z,16.20
2019-04-26T00:57:22.859Z,16.20
2019-04-26T00:59:54.203Z,16.10
2019-04-26T01:02:31.119Z,16.10
2019-04-26T01:05:02.040Z,16.10
2019-04-26T01:07:33.347Z,16.10
2019-04-26T01:10:05.386Z,16.00
2019-04-26T01:12:36.423Z,16.00
2019-04-26T01:15:07.701Z,16.00
2019-04-26T01:17:40.571Z,15.90
2019-04-26T01:20:12.444Z,16.00
2019-04-26T01:22:47.753Z,16.00
2019-04-26T01:25:43.303Z,16.10
2019-04-26T01:28:23.416Z,16.10
2019-04-26T01:30:54.947Z,16.20
2019-04-26T01:33:26.163Z,16.20
2019-04-26T01:35:57.630Z,16.30
2019-04-26T01:38:29.143Z,16.40
2019-04-26T01:41:03.715Z,16.40
2019-04-26T01:43:50.187Z,16.50
2019-04-26T01:46:31.055Z,16.60
2019-04-26T01:49:06.367Z,16.60
2019-04-26T01:51:46.540Z,16.60
2019-04-26T01:54:22.463Z,16.70
2019-04-26T01:56:56.403Z,16.70
2019-04-26T01:59:27.698Z,16.70
2019-04-26T02:02:30.150Z,16.70
2019-04-26T02:05:04.714Z,16.70
2019-04-26T02:07:39.031Z,16.70
2019-04-26T02:10:12.175Z,16.70
2019-04-26T02:12:46.203Z,16.80
2019-04-26T02:15:19.667Z,16.80
2019-04-26T02:17:53.961Z,16.90
2019-04-26T02:21:13.562Z,17.00
2019-04-26T02:24:09.590Z,17.10
2019-04-26T02:26:43.198Z,17.20
2019-04-26T02:29:21.298Z,17.20
2019-04-26T02:31:55.439Z,17.20
2019-04-26T02:34:29.891Z,17.20
2019-04-26T02:37:02.970Z,17.30
2019-04-26T02:39:37.791Z,17.30
2019-04-26T02:42:19.695Z,17.30
2019-04-26T02:45:04.403Z,17.30
2019-04-26T02:47:58.491Z,17.20
2019-04-26T02:50:36.489Z,17.20
2019-04-26T02:53:24.853Z,17.10
2019-04-26T02:56:13.784Z,17.20
2019-04-26T02:59:13.075Z,17.10
2019-04-26T03:01:44.403Z,17.10
2019-04-26T03:04:15.678Z,17.00
2019-04-26T03:07:02.161Z,17.00
2019-04-26T03:09:21.642Z,16.90
2019-04-26T03:11:55.511Z,16.90
2019-04-26T03:14:44.906Z,16.90
2019-04-26T03:17:30.462Z,16.90
2019-04-26T03:20:06.796Z,16.90
2019-04-26T03:22:54.514Z,16.90
2019-04-26T03:25:38.838Z,16.90
2019-04-26T03:28:40.105Z,16.80
2019-04-26T03:31:52.032Z,16.80
2019-04-26T03:34:29.402Z,16.80
2019-04-26T03:37:44.267Z,16.70
2019-04-26T03:40:28.511Z,16.60
2019-04-26T03:43:17.932Z,16.60
2019-04-26T03:45:59.663Z,16.60
2019-04-26T03:48:41.694Z,16.50
2019-04-26T03:51:27.176Z,16.50
2019-04-26T03:54:09.997Z,16.40
2019-04-26T03:57:24.208Z,16.40
2019-04-26T04:00:19.096Z,16.40
2019-04-26T04:03:35.874Z,16.40
2019-04-26T04:06:11.688Z,16.30
2019-04-26T04:08:48.337Z,16.30
2019-04-26T04:11:24.132Z,16.30
2019-04-26T04:14:01.378Z,16.20
2019-04-26T04:17:23.723Z,16.20
2019-04-26T04:20:38.336Z,16.20
2019-04-26T04:23:30.080Z,16.10
2019-04-26T04:26:04.246Z,16.10
2019-04-26T04:29:40.288Z,16.10
2019-04-26T04:32:02.854Z,16.10
2019-04-26T04:34:41.584Z,16.10
2019-04-26T04:37:15.696Z,16.10
2019-04-26T04:40:08.006Z,16.10
2019-04-26T04:43:42.569Z,16.10
2019-04-26T04:46:49.146Z,16.10
2019-04-26T04:49:34.043Z,16.20
2019-04-26T04:52:43.217Z,16.40
2019-04-26T04:55:20.647Z,16.60
2019-04-26T04:58:07.950Z,16.90
2019-04-26T05:01:19.083Z,17.30
2019-04-26T05:04:12.451Z,17.60
2019-04-26T05:07:13.354Z,18.10
2019-04-26T05:10:22.431Z,18.50
2019-04-26T05:13:12.571Z,18.90
2019-04-26T05:16:35.121Z,19.30
2019-04-26T05:19:42.487Z,19.70
2019-04-26T05:22:53.322Z,20.10
2019-04-26T05:26:31.647Z,20.40
2019-04-26T05:29:35.435Z,20.60
2019-04-26T05:32:48.621Z,20.80
2019-04-26T05:35:42.650Z,21.10
2019-04-26T05:38:47.809Z,21.40
2019-04-26T05:41:51.903Z,21.70
2019-04-26T05:44:36.012Z,22.10
2019-04-26T05:47:40.554Z,22.40
2019-04-26T05:50:43.159Z,22.60
2019-04-26T05:54:01.458Z,22.80
2019-04-26T05:56:52.628Z,23.00
2019-04-26T05:59:45.455Z,23.20
2019-04-26T06:02:59.995Z,23.40
2019-04-26T06:06:26.762Z,23.50
2019-04-26T06:10:04.497Z,23.70
2019-04-26T06:12:51.045Z,24.00
2019-04-26T06:15:47.095Z,24.30
2019-04-26T06:18:57.328Z,24.50
2019-04-26T06:21:58.353Z,24.80
2019-04-26T06:24:39.456Z,25.00
2019-04-26T06:27:53.504Z,25.00
2019-04-26T06:30:48.475Z,25.20
2019-04-26T06:33:50.350Z,25.60
2019-04-26T06:36:34.938Z,25.70
2019-04-26T06:39:19.151Z,25.80
2019-04-26T06:42:45.333Z,25.90
2019-04-26T06:46:20.368Z,26.00
2019-04-26T06:49:41.651Z,26.10
2019-04-26T06:52:16.831Z,26.10
2019-04-26T06:55:35.823Z,26.00
2019-04-26T06:58:49.706Z,26.10
2019-04-26T07:01:50.603Z,26.30
2019-04-26T07:04:47.867Z,26.50
2019-04-26T07:07:46.391Z,26.60
2019-04-26T07:10:48.238Z,26.70
2019-04-26T07:13:59.174Z,26.90
2019-04-26T07:16:48.978Z,26.90
2019-04-26T07:20:01.468Z,27.00
2019-04-26T07:23:35.059Z,27.00
2019-04-26T07:26:34.126Z,27.20
2019-04-26T07:29:30.713Z,27.30
2019-04-26T07:32:37.214Z,27.70
2019-04-26T07:35:53.247Z,28.10
2019-04-26T07:39:13.790Z,28.40
2019-04-26T07:42:12.991Z,28.50
2019-04-26T07:45:32.594Z,28.60
2019-04-26T07:48:37.279Z,29.10
2019-04-26T07:51:47.043Z,29.30
2019-04-26T07:55:11.074Z,29.20
2019-04-26T07:58:18.491Z,29.30
2019-04-26T08:01:05.794Z,29.50
2019-04-26T08:03:49.878Z,29.40
2019-04-26T08:06:54.466Z,29.40
2019-04-26T08:09:29.330Z,29.70
2019-04-26T08:12:08.093Z,29.70
2019-04-26T08:15:18.237Z,29.70
2019-04-26T08:18:06.723Z,29.90
2019-04-26T08:20:49.196Z,30.20
2019-04-26T08:23:39.601Z,30.50
2019-04-26T08:26:09.142Z,30.70
2019-04-26T08:28:41.535Z,30.50
2019-04-26T08:31:20.049Z,30.50
2019-04-26T08:33:56.155Z,30.70
2019-04-26T08:36:32.656Z,30.80
2019-04-26T08:39:10.887Z,30.90
2019-04-26T08:41:44.711Z,31.20
2019-04-26T08:44:26.059Z,31.50
2019-04-26T08:47:26.557Z,31.60
2019-04-26T08:50:17.712Z,31.80
2019-04-26T08:52:51.702Z,31.70
2019-04-26T08:55:24.947Z,31.60
2019-04-26T08:57:59.445Z,31.50
2019-04-26T09:00:52.014Z,31.60
2019-04-26T09:03:56.374Z,31.40
2019-04-26T09:06:33.711Z,31.60
2019-04-26T09:09:14.339Z,31.60
2019-04-26T09:11:59.126Z,31.80
2019-04-26T09:14:23.691Z,31.90
2019-04-26T09:16:55.658Z,31.70
2019-04-26T09:19:30.348Z,31.90
2019-04-26T09:22:22.667Z,31.90
2019-04-26T09:25:00.998Z,32.00
2019-04-26T09:27:45.918Z,32.10
2019-04-26T09:30:33.359Z,32.20
2019-04-26T09:33:03.026Z,32.10
2019-04-26T09:35:34.196Z,32.20
2019-04-26T09:38:05.243Z,32.50
2019-04-26T09:40:36.442Z,32.70
2019-04-26T09:43:24.993Z,32.80
2019-04-26T09:46:20.731Z,32.70
2019-04-26T09:49:17.090Z,32.70
2019-04-26T09:51:48.451Z,32.60
2019-04-26T09:54:19.683Z,32.80
2019-04-26T09:56:50.954Z,33.00
2019-04-26T09:59:22.006Z,33.20
2019-04-26T10:01:55.383Z,33.30
2019-04-26T10:04:25.896Z,33.00
2019-04-26T10:06:59.500Z,33.30
2019-04-26T10:09:30.973Z,33.30
2019-04-26T10:12:08.450Z,33.50
2019-04-26T10:14:49.223Z,33.60
2019-04-26T10:17:29.863Z,33.60
2019-04-26T10:20:00.747Z,33.50
2019-04-26T10:22:33.118Z,33.60
2019-04-26T10:25:08.063Z,33.40
2019-04-26T10:27:40.671Z,33.40
2019-04-26T10:30:11.588Z,33.40
2019-04-26T10:32:43.191Z,33.50
2019-04-26T10:35:17.445Z,33.50
2019-04-26T10:37:48.202Z,33.60
2019-04-26T10:40:20.390Z,33.70
2019-04-26T10:42:51.307Z,33.90
2019-04-26T10:45:23.081Z,34.00
2019-04-26T10:47:54.426Z,34.20
2019-04-26T10:50:28.842Z,34.50
2019-04-26T10:53:16.907Z,34.70
2019-04-26T10:56:05.803Z,34.80
2019-04-26T10:58:47.670Z,35.10
2019-04-26T11:01:19.570Z,35.20
2019-04-26T11:03:50.549Z,35.20
2019-04-26T11:06:24.089Z,35.20
2019-04-26T11:08:54.571Z,35.30
2019-04-26T11:11:25.602Z,35.20
2019-04-26T11:13:57.628Z,35.00
2019-04-26T11:16:28.761Z,34.90
2019-04-26T11:19:01.152Z,34.90
2019-04-26T11:21:33.679Z,34.90
2019-04-26T11:24:05.718Z,34.70
2019-04-26T11:26:37.082Z,34.60
2019-04-26T11:29:08.211Z,34.40
2019-04-26T11:31:39.798Z,34.20
2019-04-26T11:34:11.387Z,34.00
2019-04-26T11:36:43.078Z,33.80
2019-04-26T11:39:16.185Z,33.70
2019-04-26T11:41:48.928Z,33.60
2019-04-26T11:44:23.404Z,33.50
2019-04-26T11:46:54.112Z,33.60
2019-04-26T11:49:25.255Z,34.00
2019-04-26T11:51:58.624Z,34.30
2019-04-26T11:54:30.074Z,34.50
2019-04-26T11:57:01.123Z,34.90
2019-04-26T11:59:32.430Z,35.10
2019-04-26T12:02:03.463Z,35.20
2019-04-26T12:05:02.318Z,34.90
2019-04-26T12:07:52.347Z,35.00
2019-04-26T12:10:23.311Z,34.90
2019-04-26T12:13:05.074Z,34.70
2019-04-26T12:15:30.500Z,34.60
2019-04-26T12:18:00.506Z,34.50
2019-04-26T12:20:31.431Z,34.50
2019-04-26T12:23:03.431Z,34.80
2019-04-26T12:25:34.355Z,34.90
2019-04-26T12:28:06.363Z,35.10
2019-04-26T12:30:38.623Z,35.30
2019-04-26T12:33:09.751Z,35.30
2019-04-26T12:35:41.051Z,35.40
2019-04-26T12:38:12.812Z,35.40
2019-04-26T12:40:46.127Z,35.30
2019-04-26T12:43:20.160Z,35.10
2019-04-26T12:46:08.470Z,35.00
2019-04-26T12:48:39.840Z,34.70
2019-04-26T12:51:12.050Z,34.50
2019-04-26T12:53:43.786Z,34.10
2019-04-26T12:56:14.860Z,33.80
2019-04-26T12:58:50.122Z,33.30
2019-04-26T13:01:19.271Z,33.00
2019-04-26T13:04:07.085Z,32.70
2019-04-26T13:06:43.939Z,32.40
2019-04-26T13:09:21.713Z,32.20
2019-04-26T13:12:13.590Z,31.90
2019-04-26T13:15:07.279Z,31.80
2019-04-26T13:17:55.318Z,31.80
2019-04-26T13:20:28.789Z,31.80
2019-04-26T13:22:59.926Z,31.80
2019-04-26T13:25:40.253Z,32.00
2019-04-26T13:28:05.323Z,32.20
2019-04-26T13:30:40.085Z,32.40
2019-04-26T13:33:10.098Z,32.40
2019-04-26T13:35:45.253Z,32.40
2019-04-26T13:38:14.568Z,32.40
2019-04-26T13:40:46.253Z,32.50
2019-04-26T13:43:17.191Z,32.70
2019-04-26T13:45:56.222Z,33.10
2019-04-26T13:48:43.548Z,33.60
2019-04-26T13:51:15.765Z,34.00
2019-04-26T13:53:47.082Z,34.40
2019-04-26T13:56:18.100Z,34.70
2019-04-26T13:58:49.191Z,34.90
2019-04-26T14:01:20.290Z,35.10
2019-04-26T14:03:51.178Z,35.20
2019-04-26T14:06:22.766Z,35.20
2019-04-26T14:08:57.493Z,35.20
2019-04-26T14:11:29.384Z,35.00
2019-04-26T14:14:00.107Z,34.30
2019-04-26T14:16:32.051Z,34.10
2019-04-26T14:19:03.483Z,33.80
2019-04-26T14:21:34.965Z,33.40
2019-04-26T14:24:43.500Z,32.90
2019-04-26T14:27:34.146Z,32.40
2019-04-26T14:30:06.716Z,31.90
2019-04-26T14:32:39.255Z,31.50
2019-04-26T14:35:11.518Z,31.00
2019-04-26T14:37:45.431Z,30.70
2019-04-26T14:40:17.721Z,30.30
2019-04-26T14:42:49.226Z,30.20
2019-04-26T14:45:23.850Z,29.90
2019-04-26T14:47:53.264Z,29.80
2019-04-26T14:50:24.463Z,29.70
2019-04-26T14:52:58.269Z,29.50
2019-04-26T14:55:27.994Z,29.30
2019-04-26T14:58:01.941Z,29.10
2019-04-26T15:00:35.429Z,29.00
2019-04-26T15:03:24.759Z,29.00
2019-04-26T15:06:09.826Z,28.90
2019-04-26T15:08:45.238Z,28.70
2019-04-26T15:11:13.837Z,28.60
2019-04-26T15:13:44.786Z,28.60
2019-04-26T15:16:15.978Z,28.60
2019-04-26T15:18:46.902Z,28.50
2019-04-26T15:21:18.930Z,28.40
2019-04-26T15:23:50.191Z,28.40
2019-04-26T15:26:23.077Z,28.20
2019-04-26T15:28:54.139Z,28.10
2019-04-26T15:31:25.219Z,28.10
2019-04-26T15:33:56.621Z,28.10
2019-04-26T15:36:28.614Z,28.00
2019-04-26T15:39:02.717Z,27.90
2019-04-26T15:41:57.191Z,27.80
2019-04-26T15:45:03.354Z,27.80
2019-04-26T15:47:53.970Z,27.70
2019-04-26T15:50:40.864Z,27.60
2019-04-26T15:53:14.671Z,27.50
2019-04-26T15:55:46.339Z,27.50
2019-04-26T15:58:17.498Z,27.40
2019-04-26T16:00:48.601Z,27.30
2019-04-26T16:03:19.887Z,27.30
2019-04-26T16:05:51.103Z,27.20
2019-04-26T16:08:22.914Z,27.10
2019-04-26T16:10:54.182Z,27.10
2019-04-26T16:13:25.446Z,27.00
2019-04-26T16:15:56.506Z,26.90
2019-04-26T16:18:27.602Z,26.90
2019-04-26T16:20:58.938Z,26.80
2019-04-26T16:23:39.416Z,26.70
2019-04-26T16:26:03.126Z,26.70
2019-04-26T16:29:08.761Z,26.50
2019-04-26T16:32:08.241Z,26.40
2019-04-26T16:34:41.675Z,26.40
2019-04-26T16:37:14.974Z,26.20
2019-04-26T16:39:48.660Z,26.10
2019-04-26T16:42:19.628Z,26.10
2019-04-26T16:44:50.942Z,26.00
2019-04-26T16:47:23.367Z,25.80
2019-04-26T16:49:56.258Z,25.70
2019-04-26T16:52:27.775Z,25.60
2019-04-26T16:55:02.735Z,25.60
2019-04-26T16:57:33.927Z,25.50
2019-04-26T17:00:05.455Z,25.40
2019-04-26T17:02:37.586Z,25.40
2019-04-26T17:05:19.107Z,25.30
2019-04-26T17:07:43.741Z,25.30
2019-04-26T17:10:16.582Z,25.30
2019-04-26T17:12:50.542Z,25.20
2019-04-26T17:15:22.725Z,25.10
2019-04-26T17:17:55.063Z,25.10
2019-04-26T17:20:26.450Z,25.00
2019-04-26T17:23:30.018Z,25.00
2019-04-26T17:26:13.248Z,24.90
2019-04-26T17:28:44.638Z,24.80
2019-04-26T17:31:16.030Z,24.70
2019-04-26T17:33:48.226Z,24.70
2019-04-26T17:36:19.514Z,24.60
2019-04-26T17:38:50.987Z,24.50
2019-04-26T17:41:22.350Z,24.40
2019-04-26T17:44:06.196Z,24.20
2019-04-26T17:46:26.554Z,24.10
2019-04-26T17:48:57.846Z,24.00
2019-04-26T17:51:32.566Z,23.90
2019-04-26T17:54:21.097Z,23.70
2019-04-26T17:56:39.395Z,23.70
2019-04-26T17:59:09.398Z,23.50
2019-04-26T18:01:47.041Z,23.40
2019-04-26T18:04:15.126Z,23.30
2019-04-26T18:06:57.889Z,23.20
2019-04-26T18:09:40.522Z,23.10
2019-04-26T18:11:55.276Z,23.00
2019-04-26T18:14:30.671Z,22.90
2019-04-26T18:17:05.762Z,22.80
2019-04-26T18:19:44.702Z,22.70
2019-04-26T18:22:36.423Z,22.60
2019-04-26T18:25:11.182Z,22.50
2019-04-26T18:27:43.526Z,22.40
2019-04-26T18:30:15.396Z,22.30
2019-04-26T18:32:47.777Z,22.20
2019-04-26T18:35:19.242Z,22.10
2019-04-26T18:37:50.466Z,22.00
2019-04-26T18:40:23.100Z,22.00
2019-04-26T18:42:55.165Z,21.90
2019-04-26T18:45:29.694Z,21.80
2019-04-26T18:48:01.450Z,21.80
2019-04-26T18:50:32.901Z,21.70
2019-04-26T18:53:22.562Z,21.70
2019-04-26T18:55:54.521Z,21.60
2019-04-26T18:58:26.544Z,21.50
2019-04-26T19:01:01.714Z,21.50
2019-04-26T19:03:31.146Z,21.40
2019-04-26T19:06:04.361Z,21.40
2019-04-26T19:08:45.436Z,21.40
2019-04-26T19:11:11.815Z,21.30
2019-04-26T19:14:06.337Z,21.30
2019-04-26T19:16:50.613Z,21.30
2019-04-26T19:19:39.454Z,21.30
2019-04-26T19:22:15.527Z,21.30
2019-04-26T19:24:44.022Z,21.30
2019-04-26T19:27:15.303Z,21.30
2019-04-26T19:29:46.506Z,21.30
2019-04-26T19:32:18.086Z,21.30
2019-04-26T19:34:50.308Z,21.30
2019-04-26T19:37:23.219Z,21.30
2019-04-26T19:39:54.714Z,21.30
2019-04-26T19:42:27.152Z,21.30
2019-04-26T19:45:11.739Z,21.20
2019-04-26T19:47:51.953Z,21.30
2019-04-26T19:50:48.739Z,21.20
2019-04-26T19:53:24.688Z,21.20
2019-04-26T19:56:12.102Z,21.20
2019-04-26T19:58:45.951Z,21.20
2019-04-26T20:01:20.951Z,21.20
2019-04-26T20:03:52.152Z,21.20
2019-04-26T20:06:26.650Z,21.20
2019-04-26T20:08:56.343Z,21.20
2019-04-26T20:11:27.586Z,21.20
2019-04-26T20:13:58.653Z,21.30
2019-04-26T20:16:29.934Z,21.30
2019-04-26T20:19:00.987Z,21.30
2019-04-26T20:21:33.792Z,21.40
2019-04-26T20:24:05.048Z,21.40
2019-04-26T20:26:37.351Z,21.50
2019-04-26T20:29:10.070Z,21.60
2019-04-26T20:31:53.339Z,21.60
2019-04-26T20:34:24.342Z,21.70
2019-04-26T20:36:55.406Z,21.80
2019-04-26T20:39:26.658Z,21.80
2019-04-26T20:42:01.887Z,21.80
2019-04-26T20:44:47.595Z,21.80
2019-04-26T20:47:07.601Z,21.80
2019-04-26T20:49:47.449Z,21.80
2019-04-26T20:52:10.271Z,21.80
2019-04-26T20:54:41.704Z,21.80
2019-04-26T20:57:13.435Z,21.70
2019-04-26T20:59:44.590Z,21.60
2019-04-26T21:02:20.452Z,21.60
2019-04-26T21:04:49.094Z,21.50
2019-04-26T21:07:21.900Z,21.50
2019-04-26T21:09:53.159Z,21.40
2019-04-26T21:12:25.248Z,21.40
2019-04-26T21:14:56.490Z,21.30
2019-04-26T21:17:27.907Z,21.20
2019-04-26T21:19:58.983Z,21.20
2019-04-26T21:22:31.657Z,21.10
2019-04-26T21:25:08.082Z,21.00
2019-04-26T21:28:06.798Z,20.90
2019-04-26T21:30:45.727Z,20.80
2019-04-26T21:33:38.740Z,20.70
2019-04-26T21:36:34.753Z,20.60
2019-04-26T21:39:21.856Z,20.50
2019-04-26T21:41:54.271Z,20.40
2019-04-26T21:44:25.526Z,20.30
2019-04-26T21:46:58.950Z,20.20
2019-04-26T21:49:29.495Z,20.10
2019-04-26T21:52:00.606Z,19.90
2019-04-26T21:54:32.989Z,19.80
2019-04-26T21:57:04.179Z,19.60
2019-04-26T21:59:40.603Z,19.40
2019-04-26T22:02:08.258Z,19.30
2019-04-26T22:04:39.180Z,19.10
2019-04-26T22:07:10.486Z,18.90
2019-04-26T22:10:05.152Z,18.70
2019-04-26T22:12:36.651Z,18.50
2019-04-26T22:15:35.870Z,18.30
2019-04-26T22:18:10.210Z,18.10
2019-04-26T22:21:02.951Z,17.90
2019-04-26T22:23:47.567Z,17.80
2019-04-26T22:26:18.362Z,17.60
2019-04-26T22:28:49.186Z,17.50
2019-04-26T22:31:21.292Z,17.30
2019-04-26T22:33:53.668Z,17.20
2019-04-26T22:36:27.445Z,17.10
2019-04-26T22:39:01.778Z,16.90
2019-04-26T22:41:33.854Z,16.80
2019-04-26T22:44:14.802Z,16.70
2019-04-26T22:47:03.704Z,16.70
2019-04-26T22:49:41.300Z,16.60
2019-04-26T22:52:11.197Z,16.50
2019-04-26T22:54:44.745Z,16.40
2019-04-26T22:57:15.868Z,16.40
2019-04-26T22:59:50.180Z,16.40
2019-04-26T23:02:26.296Z,16.30
2019-04-26T23:04:55.916Z,16.20
2019-04-26T23:07:26.200Z,16.20
2019-04-26T23:09:57.523Z,16.20
2019-04-26T23:12:46.042Z,16.10
2019-04-26T23:15:43.285Z,16.00
2019-04-26T23:18:43.755Z,16.00
2019-04-26T23:21:20.255Z,15.90
2019-04-26T23:23:50.966Z,15.80
2019-04-26T23:26:23.045Z,15.80
2019-04-26T23:28:54.418Z,15.70
2019-04-26T23:31:26.406Z,15.70
2019-04-26T23:33:57.519Z,15.50
2019-04-26T23:36:28.491Z,15.50
2019-04-26T23:38:59.538Z,15.40
2019-04-26T23:41:30.351Z,15.30
2019-04-26T23:44:04.710Z,15.20
2019-04-26T23:46:34.386Z,15.20
2019-04-26T23:49:05.827Z,15.10
2019-04-26T23:51:38.314Z,15.10
2019-04-26T23:54:09.285Z,15.00
2019-04-26T23:56:40.053Z,15.00
2019-04-26T23:59:14.983Z,14.90
